• Join FlightAware (Why Join?)
  • Login
  • US Flag GB Flag 
01:21 EDT


 

Airport Tracker/Info


-or-


 

Live Flight TrackerFlight Track Log ✈ TRS679 ✈ 19-Apr-2013 ✈ KATL - KRDU

Flight Track Log - Related Links

Times and Time Zones

All times are in EDT time to prevent confusion due to time zone crossing. See the TRS679 flight status page for this flight to view local times or setup timezone preferences in your user account.

Time Position Orientation Groundspeed Altitude Reporting Facility
EDT Latitude Longitude Course Direction KTS MPH feet Rate Location/Type
17:51 33.6333 -84.4667 118° Southeast 157 181 2,600  Level Atlanta TRACON
17:52 33.6167 -84.5167 248° West 220 253 3,600 2,040 Climbing Atlanta TRACON
17:53 33.5667 -84.5833 228° Southwest 231 266 7,000 2,520 Climbing Atlanta TRACON
17:54 33.5000 -84.5833 180° South 266 306 8,900 1,740 Climbing Atlanta TRACON
17:56 33.4556 -84.3900 105° East 331 381 11,900 1,740 Climbing Atlanta Center
17:57 33.6467 -83.8733 118° Southeast  Level FlightAware Approximate
17:57 33.4600 -84.2531 88° East 383 441 13,900  Level Atlanta Center
17:58 33.4811 -84.1111 80° East 419 482 16,000 1,800 Climbing Atlanta Center
17:59 33.5019 -83.9642 80° East 435 501 17,500 1,500 Climbing Atlanta Center
18:00 33.5247 -83.8119 80° East 449 517 19,000 1,800 Climbing Atlanta Center
18:01 33.5453 -83.6625 81° East 460 529 21,200 2,100 Climbing Atlanta Center
18:02 33.5636 -83.5103 82° East 460 529 23,300 1,380 Climbing Atlanta Center
18:03 33.5814 -83.3531 82° East 471 542 24,000 840 Climbing Atlanta Center
18:04 33.5972 -83.1908 83° East 485 558 25,000 960 Climbing Atlanta Center
18:05 33.6169 -83.0261 82° East 495 570 26,000 1,980 Climbing Atlanta Center
18:06 33.6592 -82.8683 72° East 501 577 29,000 1,260 Climbing Atlanta Center
18:07 33.7142 -82.7303 64° Northeast 501 577 28,600  Descending Atlanta Center
18:08 33.7794 -82.5817 62° Northeast 501 577 29,000 180 Climbing Atlanta Center
18:09 33.8419 -82.4256 64° Northeast 507 583 29,000  Level Atlanta Center
18:11 33.9717 -82.1139 63° Northeast 529 609 29,000  Level Jacksonville Center
18:12 34.0311 -81.9628 65° Northeast 509 586 29,000  Level Jacksonville Center
18:13 34.0947 -81.8092 63° Northeast 503 579 29,000  Level Jacksonville Center
18:14 34.1497 -81.6731 64° Northeast 498 573 29,000  Level Jacksonville Center
18:15 34.2250 -81.4886 64° Northeast 504 580 29,000  Level Jacksonville Center
18:16 34.2778 -81.3697 62° Northeast 509 586 29,000  Level Jacksonville Center
18:17 34.3678 -81.2172 54° Northeast 508 585 29,000 -300 Level Jacksonville Center
18:18 34.4556 -81.0769 53° Northeast 513 590 28,400 -840 Descending Jacksonville Center
18:19 34.5431 -80.9417 52° Northeast 518 596 27,400 -1,020 Descending Jacksonville Center
18:20 34.6328 -80.8008 52° Northeast 527 606 26,400 -1,020 Descending Jacksonville Center
18:22 34.8156 -80.5047 53° Northeast 506 582 24,200 -1,020 Descending Washington Center
18:23 34.8983 -80.3731 53° Northeast 500 575 23,200 -600 Descending Washington Center
18:24 34.9806 -80.2411 53° Northeast 487 560 23,000 -120 Descending Washington Center
18:25 35.0608 -80.1111 53° Northeast 487 560 23,000  Level Washington Center
18:26 35.1517 -79.9689 52° Northeast 487 560 23,000  Level Washington Center
18:27 35.1900 -79.8286 71° East 448 516 23,000  Level Washington Center
18:28 35.1956 -79.6739 87° East 438 504 23,000  Level Washington Center
18:29 35.1922 -79.5239 92° East 438 504 23,000  Level Washington Center
18:30 35.1886 -79.3711 92° East 443 510 23,000  Level Washington Center
18:31 35.1683 -79.2228 99° East 443 510 23,000 -60 Level Washington Center
18:32 35.1769 -79.0708 86° East 444 511 22,900 -1,020 Descending Washington Center
18:33 35.2186 -78.9278 70° East 439 505 21,000 -2,760 Descending Washington Center
18:34 35.2806 -78.8031 59° Northeast 429 494 17,400 -3,480 Descending Washington Center
18:35 35.3403 -78.7494 36° Northeast 425 489 15,200 -3,300 Descending Washington Center
18:35 35.3828 -78.7231 27° Northeast 410 472 14,200 -2,760 Descending Washington Center
18:36 35.4061 -78.7086 27° Northeast 421 484 13,500 -2,400 Descending Washington Center
18:36 35.4825 -78.6556 29° Northeast 408 470 11,800 -2,040 Descending Washington Center
18:37 35.5058 -78.6386 31° Northeast 412 474 11,500 -900 Descending Washington Center
18:37 35.5861 -78.6083 17° North 398 458 10,900 -1,200 Descending Washington Center
18:38 35.6133 -78.5967 19° North 368 423 10,300 -2,100 Descending Washington Center
18:38 35.6786 -78.5761 14° North 377 434 8,800 -2,100 Descending Washington Center
18:39 35.7058 -78.5694 11° North 316 364 8,200 -1,200 Descending Washington Center
18:39 35.7622 -78.5742 356° North 310 357 7,600 -840 Descending Washington Center
18:40 35.7806 -78.5850 334° Northwest 255 293 7,400 -900 Descending Washington Center
18:40 35.8258 -78.6097 336° Northwest 269 310 6,700 -1,020 Descending Washington Center
18:41 35.8403 -78.6181 335° Northwest 233 268 6,400 -600 Descending Washington Center
18:41 35.8883 -78.6147 North 243 280 6,100 -540 Descending Washington Center
18:42 35.9033 -78.6000 38° Northeast 261 300 5,900 -1,260 Descending Washington Center
18:43 35.9708 -78.5742 17° North 247 284 4,400 -1,200 Descending Washington Center
18:43 36.0103 -78.5783 355° North 224 258 4,000 -300 Descending Washington Center
18:44 36.0256 -78.5533 53° Northeast 244 281 4,100 600 Climbing Washington Center
18:44 36.0392 -78.5050 71° East 195 224 4,600 900 Climbing Washington Center
18:45 36.0422 -78.4742 83° East 236 272 5,000 300 Climbing Washington Center
18:46 36.0164 -78.4092 116° Southeast 210 242 5,100 360 Climbing Washington Center
18:47 35.9867 -78.3439 119° Southeast 216 249 5,800 840 Climbing Washington Center
18:48 36.0117 -78.2600 70° East 307 353 6,900 540 Climbing Washington Center
18:49 36.0775 -78.2083 32° Northeast 295 339 7,000 60 Climbing Washington Center
18:50 36.1011 -78.2656 297° West 181 208 7,100 60 Climbing Washington Center